Guanajuato International Airport
MMLO : rendu visible

Aérodrome :











RETROUVEZ-NOUS SUR...

 
LOGIN :

S'inscrire | Disclaimer

   EN    FR    IT 

 









Légende :    VFR   VFR Marginal   IFR   IFR Intensif   IFR Très Intensif
Visi : 
Plafond : 
>= 8 km
>= 3000ft
5 à 8 km
1000 à 3000 ft
1500m à 5 km
500 à 1000 ft
800 à 1500m
200 à 500 ft
< 800m
< 200 ft
Symboles :   Orages  Brouillard  Fortes neiges  Fortes précipitations  Vent > 20 kt






- Altitude de l'aérodrome : 5956 ft
- Code IATA : BJX


MMLO - Guanajuato International

DERNIER METAR :
  • 142040Z 19004KT 10SM SKC 25/M06 A3021 RMK SLP128 57026 959

METARs EXPIRÉS :
  • 141943Z 26004KT 10SM SKC 24/M02 A3023
  • 141840Z 00000KT 10SM SKC 23/01 A3026

TAF TAF MMLO
Valide du 14 à 18h jusqu'au 15 à 18h UTC


141633Z 1418/1518 17006KT P6SM SKC
BECMG 1420/1421 23012KT
FM150200 32006KT P6SM SKC
BECMG 1505/1506 00000KT
FM151200 15005KT 6SM HZ SCT250



MET'MAP, la Météo Aéronautique d'un coup d'oeil ! - Copyright ORBIFLY Décembre 2007 - Disclaimer

ORBIFLY MET'MAP TEAM :

Programmation & Développement : Alexandra Zaïnal
Sur une idée originale de : Baudouin d'Aumeries
Assistance à la programmation : Marc-Olivier Méhu
Soutien technique & logistique : Manuel Goepfert

Contact : metmap@orbifly.com




SOURCES & CREDITS :

   NOAA       Earth
Advisory